createdAt,value
2022-08-30T00:02:39.740Z,2.67
2022-08-30T00:06:41.468Z,2.53
2022-08-30T00:10:43.566Z,2.47
2022-08-30T00:14:45.074Z,2.90
2022-08-30T00:18:49.152Z,2.60
2022-08-30T00:22:50.727Z,2.43
2022-08-30T00:26:52.251Z,2.70
2022-08-30T00:30:54.069Z,2.27
2022-08-30T00:34:57.028Z,2.33
2022-08-30T00:38:58.687Z,2.67
2022-08-30T00:43:05.814Z,2.53
2022-08-30T00:47:08.402Z,2.63
2022-08-30T00:51:14.293Z,2.33
2022-08-30T00:55:18.025Z,2.67
2022-08-30T00:59:20.029Z,2.60
2022-08-30T01:03:22.246Z,2.43
2022-08-30T01:07:25.095Z,2.23
2022-08-30T01:11:26.946Z,2.10
2022-08-30T01:15:29.166Z,2.27
2022-08-30T01:19:38.630Z,2.73
2022-08-30T01:23:44.654Z,2.40
2022-08-30T01:27:51.883Z,2.83
2022-08-30T01:31:53.946Z,2.27
2022-08-30T01:35:59.251Z,2.30
2022-08-30T01:40:02.710Z,2.33
2022-08-30T01:44:07.287Z,2.63
2022-08-30T01:48:10.016Z,2.30
2022-08-30T01:52:13.598Z,2.47
2022-08-30T01:56:17.325Z,2.50
2022-08-30T02:00:19.278Z,2.30
2022-08-30T02:04:20.790Z,2.60
2022-08-30T02:08:22.318Z,2.80
2022-08-30T02:12:25.205Z,2.50
2022-08-30T02:16:26.728Z,2.30
2022-08-30T02:20:28.422Z,2.30
2022-08-30T02:24:30.210Z,2.40
2022-08-30T02:28:33.326Z,3.07
2022-08-30T02:32:35.005Z,2.40
2022-08-30T02:36:37.441Z,2.50
2022-08-30T02:40:39.487Z,2.60
2022-08-30T02:44:42.622Z,2.43
2022-08-30T02:48:44.467Z,2.80
2022-08-30T02:52:48.406Z,2.47
2022-08-30T02:56:50.313Z,2.40
2022-08-30T03:00:53.507Z,2.47
2022-08-30T03:04:55.119Z,2.60
2022-08-30T03:08:56.766Z,2.57
2022-08-30T03:12:58.476Z,2.73
2022-08-30T03:17:01.580Z,1.97
2022-08-30T03:21:03.536Z,2.40
2022-08-30T03:25:08.343Z,2.67
2022-08-30T03:29:10.041Z,2.40
2022-08-30T03:33:15.090Z,2.60
2022-08-30T03:37:17.569Z,2.60
2022-08-30T03:41:19.292Z,2.30
2022-08-30T03:45:21.413Z,2.37
2022-08-30T03:49:24.636Z,2.33
2022-08-30T03:53:27.237Z,2.27
2022-08-30T03:57:29.477Z,2.50
2022-08-30T04:01:33.095Z,2.40
2022-08-30T04:05:36.021Z,2.93
2022-08-30T04:09:37.781Z,2.53
2022-08-30T04:13:39.521Z,2.47
2022-08-30T04:17:41.145Z,2.30
2022-08-30T04:21:44.382Z,2.40
2022-08-30T04:25:46.501Z,2.50
2022-08-30T04:29:48.185Z,2.70
2022-08-30T04:33:49.713Z,2.30
2022-08-30T04:37:52.571Z,2.80
2022-08-30T04:41:54.492Z,2.37
2022-08-30T04:45:56.048Z,2.60
2022-08-30T04:49:58.705Z,2.73
2022-08-30T04:54:01.601Z,2.43
2022-08-30T04:58:03.137Z,2.63
2022-08-30T05:02:04.844Z,2.10
2022-08-30T05:06:06.896Z,2.33
2022-08-30T05:10:11.578Z,2.50
2022-08-30T05:14:13.566Z,2.70
2022-08-30T05:18:15.279Z,2.73
2022-08-30T05:22:16.960Z,2.87
2022-08-30T05:26:22.800Z,2.60
2022-08-30T05:30:28.395Z,3.00
2022-08-30T05:34:30.550Z,2.70
2022-08-30T05:38:32.057Z,2.97
2022-08-30T05:42:35.401Z,2.40
2022-08-30T05:46:37.622Z,2.50
2022-08-30T05:50:40.029Z,2.47
2022-08-30T05:54:41.911Z,2.83
2022-08-30T05:58:44.809Z,2.70
2022-08-30T06:02:46.681Z,2.30
2022-08-30T06:06:48.374Z,2.53
2022-08-30T06:10:50.391Z,2.70
2022-08-30T06:14:53.615Z,2.33
2022-08-30T06:18:57.505Z,2.87
2022-08-30T06:22:59.217Z,2.97
2022-08-30T06:27:00.735Z,2.67
2022-08-30T06:31:06.092Z,2.83
2022-08-30T06:35:08.653Z,2.93
2022-08-30T06:39:10.276Z,2.93
2022-08-30T06:43:11.951Z,3.23
2022-08-30T06:47:15.046Z,2.80
2022-08-30T06:51:20.023Z,3.07
2022-08-30T06:55:21.865Z,3.23
2022-08-30T06:59:23.524Z,2.80
2022-08-30T07:03:26.618Z,3.37
2022-08-30T07:07:28.318Z,3.23
2022-08-30T07:11:33.283Z,2.70
2022-08-30T07:15:38.109Z,3.23
2022-08-30T07:19:41.366Z,2.77
2022-08-30T07:23:43.943Z,3.50
2022-08-30T07:27:45.422Z,2.80
2022-08-30T07:31:46.926Z,3.10
2022-08-30T07:35:49.937Z,3.47
2022-08-30T07:39:51.837Z,2.90
2022-08-30T07:43:54.323Z,2.73
2022-08-30T07:47:56.360Z,2.60
2022-08-30T07:51:59.396Z,2.63
2022-08-30T07:56:01.672Z,2.70
2022-08-30T08:00:07.726Z,2.40
2022-08-30T08:04:09.471Z,2.70
2022-08-30T08:08:15.529Z,3.00
2022-08-30T08:12:17.109Z,2.50
2022-08-30T08:16:19.119Z,2.50
2022-08-30T08:20:20.675Z,2.70
2022-08-30T08:24:23.881Z,2.53
2022-08-30T08:28:25.444Z,2.47
2022-08-30T08:32:27.208Z,2.57
2022-08-30T08:36:28.710Z,2.67
2022-08-30T08:40:36.558Z,2.37
2022-08-30T08:44:50.353Z,2.40
2022-08-30T08:49:01.310Z,2.40
2022-08-30T08:53:10.769Z,2.37
2022-08-30T08:57:22.708Z,2.33
2022-08-30T09:01:29.391Z,2.57
2022-08-30T09:05:35.909Z,2.30
2022-08-30T09:09:39.909Z,2.80
2022-08-30T09:13:42.734Z,2.40
2022-08-30T09:17:54.959Z,2.47
2022-08-30T09:21:57.821Z,2.10
2022-08-30T09:26:02.311Z,2.37
2022-08-30T09:30:11.228Z,2.10
2022-08-30T09:34:19.232Z,2.50
2022-08-30T09:38:23.188Z,2.13
2022-08-30T09:42:27.007Z,2.53
2022-08-30T09:46:29.890Z,2.57
2022-08-30T09:50:34.088Z,2.47
2022-08-30T09:54:42.345Z,2.10
2022-08-30T09:58:59.261Z,2.50
2022-08-30T10:03:35.811Z,2.50
2022-08-30T10:07:47.571Z,2.37
2022-08-30T10:11:56.533Z,2.33
2022-08-30T10:16:05.338Z,2.53
2022-08-30T10:20:16.960Z,2.30
2022-08-30T10:24:24.498Z,2.57
2022-08-30T10:28:32.446Z,2.35
2022-08-30T10:32:39.131Z,2.37
2022-08-30T10:36:47.307Z,2.40
2022-08-30T10:40:55.651Z,2.95
2022-08-30T10:45:03.618Z,2.50
2022-08-30T10:49:12.008Z,2.70
2022-08-30T10:53:18.596Z,2.60
2022-08-30T10:57:21.960Z,2.50
2022-08-30T11:01:46.539Z,2.33
2022-08-30T11:06:09.742Z,2.75
2022-08-30T11:10:30.535Z,2.30
2022-08-30T11:14:32.309Z,2.42
2022-08-30T11:18:43.349Z,2.60
2022-08-30T11:23:13.912Z,2.28
2022-08-30T11:27:42.988Z,2.72
2022-08-30T11:31:44.720Z,2.60
2022-08-30T11:35:51.215Z,2.60
2022-08-30T11:40:01.980Z,2.95
2022-08-30T11:44:27.216Z,2.60
2022-08-30T11:48:47.068Z,2.58
2022-08-30T11:53:04.026Z,2.63
2022-08-30T11:57:17.367Z,2.63
2022-08-30T12:01:49.668Z,2.80
2022-08-30T12:05:59.105Z,2.65
2022-08-30T12:10:04.644Z,2.38
2022-08-30T12:14:09.279Z,2.50
2022-08-30T12:18:16.402Z,2.50
2022-08-30T12:22:18.635Z,2.10
2022-08-30T12:26:31.062Z,2.70
2022-08-30T12:30:32.711Z,2.88
2022-08-30T12:34:50.779Z,2.50
2022-08-30T12:39:05.753Z,2.80
2022-08-30T12:43:21.704Z,2.70
2022-08-30T12:47:30.238Z,2.60
2022-08-30T12:51:41.133Z,2.40
2022-08-30T12:55:52.607Z,2.55
2022-08-30T12:59:59.614Z,2.53
2022-08-30T13:04:18.781Z,2.90
2022-08-30T13:08:26.011Z,2.53
2022-08-30T13:12:28.755Z,2.90
2022-08-30T13:16:36.802Z,2.65
2022-08-30T13:20:38.842Z,2.63
2022-08-30T13:24:42.441Z,2.70
2022-08-30T13:28:48.033Z,3.13
2022-08-30T13:32:50.541Z,3.00
2022-08-30T13:36:55.071Z,2.97
2022-08-30T13:40:58.278Z,2.80
2022-08-30T13:44:59.912Z,3.53
2022-08-30T13:49:04.885Z,2.50
2022-08-30T13:53:06.697Z,2.80
2022-08-30T13:57:10.049Z,2.40
2022-08-30T14:01:12.389Z,2.78
2022-08-30T14:05:37.472Z,2.70
2022-08-30T14:09:37.041Z,2.63
2022-08-30T14:18:05.943Z,2.83
2022-08-30T14:22:07.591Z,3.33
2022-08-30T14:26:13.422Z,2.60
2022-08-30T14:30:20.497Z,3.17
2022-08-30T14:34:22.761Z,2.78
2022-08-30T14:38:24.251Z,2.70
2022-08-30T14:42:25.886Z,2.70
2022-08-30T14:46:29.155Z,2.88
2022-08-30T14:50:30.833Z,2.35
2022-08-30T14:54:32.786Z,3.00
2022-08-30T14:58:34.240Z,3.10
2022-08-30T15:02:37.777Z,2.65
2022-08-30T15:06:41.397Z,2.50
2022-08-30T15:10:43.343Z,2.67
2022-08-30T15:14:45.541Z,2.70
2022-08-30T15:18:49.007Z,2.67
2022-08-30T15:22:50.585Z,2.50
2022-08-30T15:26:54.085Z,2.78
2022-08-30T15:30:56.501Z,2.65
2022-08-30T15:34:59.540Z,2.70
2022-08-30T15:39:01.156Z,2.85
2022-08-30T15:43:02.824Z,2.35
2022-08-30T15:47:05.166Z,2.88
2022-08-30T15:51:08.192Z,2.28
2022-08-30T15:55:11.065Z,2.72
2022-08-30T15:59:14.168Z,2.58
2022-08-30T16:03:15.845Z,2.75
2022-08-30T16:07:18.978Z,2.83
2022-08-30T16:11:21.705Z,2.83
2022-08-30T16:15:23.401Z,3.05
2022-08-30T16:19:25.181Z,2.50
2022-08-30T16:23:28.166Z,2.75
2022-08-30T16:27:35.082Z,2.60
2022-08-30T16:31:38.316Z,2.85
2022-08-30T16:35:41.054Z,2.60
2022-08-30T16:39:46.714Z,2.40
2022-08-30T16:43:48.809Z,2.28
2022-08-30T16:47:51.173Z,2.28
2022-08-30T16:51:54.382Z,2.47
2022-08-30T16:55:57.281Z,2.78
2022-08-30T16:59:58.881Z,2.33
2022-08-30T17:04:00.488Z,2.80
2022-08-30T17:08:03.435Z,2.47
2022-08-30T17:12:07.115Z,2.53
2022-08-30T17:16:08.830Z,2.30
2022-08-30T17:20:11.061Z,2.40
2022-08-30T17:24:13.241Z,2.60
2022-08-30T17:28:16.226Z,2.30
2022-08-30T17:32:18.917Z,2.60
2022-08-30T17:36:20.566Z,2.40
2022-08-30T17:40:22.575Z,2.40
2022-08-30T17:44:26.865Z,2.37
2022-08-30T17:48:28.568Z,2.40
2022-08-30T17:52:30.336Z,2.53
2022-08-30T17:56:35.254Z,2.37
2022-08-30T18:00:38.633Z,2.30
2022-08-30T18:04:41.675Z,2.20
2022-08-30T18:08:43.912Z,2.70
2022-08-30T18:12:46.071Z,2.13
2022-08-30T18:16:54.469Z,2.30
2022-08-30T18:20:56.599Z,1.93
2022-08-30T18:25:02.224Z,2.17
2022-08-30T18:29:04.732Z,2.10
2022-08-30T18:33:08.003Z,2.30
2022-08-30T18:37:11.283Z,2.53
2022-08-30T18:41:14.659Z,2.43
2022-08-30T18:45:17.259Z,2.23
2022-08-30T18:49:21.571Z,2.50
2022-08-30T18:53:28.944Z,2.33
2022-08-30T18:57:31.127Z,2.40
2022-08-30T19:01:33.975Z,2.20
2022-08-30T19:05:37.402Z,2.13
2022-08-30T19:09:38.922Z,2.50
2022-08-30T19:13:40.563Z,2.07
2022-08-30T19:17:44.482Z,2.13
2022-08-30T19:21:47.582Z,2.20
2022-08-30T19:25:51.582Z,1.90
2022-08-30T19:29:55.401Z,2.00
2022-08-30T19:33:56.978Z,2.10
2022-08-30T19:38:00.486Z,1.93
2022-08-30T19:42:02.978Z,1.80
2022-08-30T19:46:04.634Z,2.00
2022-08-30T19:50:07.834Z,2.17
2022-08-30T19:54:12.194Z,2.10
2022-08-30T19:58:14.034Z,2.30
2022-08-30T20:02:15.763Z,1.80
2022-08-30T20:06:18.203Z,2.20
2022-08-30T20:10:25.776Z,1.87
2022-08-30T20:14:27.759Z,1.80
2022-08-30T20:18:29.539Z,2.03
2022-08-30T20:22:31.246Z,2.40
2022-08-30T20:26:34.593Z,2.10
2022-08-30T20:30:36.158Z,2.20
2022-08-30T20:34:37.787Z,2.20
2022-08-30T20:38:39.826Z,2.07
2022-08-30T20:42:43.032Z,1.83
2022-08-30T20:46:45.879Z,1.90
2022-08-30T20:50:48.571Z,1.90
2022-08-30T20:54:50.289Z,1.90
2022-08-30T20:58:57.707Z,2.10
2022-08-30T21:02:59.560Z,1.90
2022-08-30T21:07:01.967Z,1.90
2022-08-30T21:11:03.778Z,1.90
2022-08-30T21:15:26.856Z,2.00
2022-08-30T21:19:29.031Z,2.10
2022-08-30T21:23:32.728Z,2.00
2022-08-30T21:27:34.590Z,1.90
2022-08-30T21:31:37.965Z,2.10
2022-08-30T21:35:39.571Z,2.07
2022-08-30T21:39:41.171Z,1.70
2022-08-30T21:43:42.955Z,2.27
2022-08-30T21:47:46.515Z,2.17
2022-08-30T21:51:49.574Z,2.00
2022-08-30T21:55:51.263Z,2.00
2022-08-30T21:59:53.538Z,2.20
2022-08-30T22:03:58.043Z,2.00
2022-08-30T22:07:59.525Z,1.80
2022-08-30T22:12:01.374Z,1.90
2022-08-30T22:16:03.784Z,2.17
2022-08-30T22:20:08.214Z,1.83
2022-08-30T22:24:10.018Z,2.20
2022-08-30T22:28:11.891Z,1.80
2022-08-30T22:32:13.681Z,2.13
2022-08-30T22:36:19.501Z,2.00
2022-08-30T22:40:21.608Z,1.90
2022-08-30T22:44:23.447Z,2.07
2022-08-30T22:48:25.177Z,2.03
2022-08-30T22:52:28.080Z,2.00
2022-08-30T22:56:30.270Z,1.90
2022-08-30T23:00:32.295Z,2.20
2022-08-30T23:04:36.320Z,1.93
2022-08-30T23:08:39.346Z,1.90
2022-08-30T23:12:40.991Z,1.90
2022-08-30T23:16:42.743Z,2.17
2022-08-30T23:20:44.478Z,1.90
2022-08-30T23:24:49.065Z,2.40
2022-08-30T23:28:50.836Z,2.80
2022-08-30T23:32:52.520Z,2.50
2022-08-30T23:36:54.154Z,2.90
2022-08-30T23:40:57.150Z,2.80
2022-08-30T23:44:58.646Z,3.20
2022-08-30T23:49:01.338Z,3.00
2022-08-30T23:53:02.910Z,3.20
2022-08-30T23:57:06.246Z,3.00
